Time;durP1;ratioP1;P1;durP2;ratioP2;P2;SDS_P1;SDS_P2;PMS_P1;PMS_P2;Temp;Humidity;BMP_temperature;BMP_pressure;BME280_temperature;BME280_humidity;BME280_pressure;Samples;Min_cycle;Max_cycle;Signal;HPM_P1;HPM_P2
2022/05/13 00:01:09;;;;;;;16.73;9.10;;;;;;;21.22;71.32;100424.28;5132168;27;20538;-64
2022/05/13 00:03:36;;;;;;;18.45;10.65;;;;;;;21.17;71.34;100421.31;5132331;27;20023;-65
2022/05/13 00:06:01;;;;;;;14.88;9.82;;;;;;;21.06;71.29;100411.00;5132045;27;20124;-65
2022/05/13 00:08:28;;;;;;;16.40;9.85;;;;;;;21.09;71.80;100420.66;5132013;27;20027;-65
2022/05/13 00:10:54;;;;;;;19.10;9.88;;;;;;;21.01;72.45;100415.31;5131774;27;20082;-65
2022/05/13 00:13:20;;;;;;;16.90;10.07;;;;;;;21.03;73.34;100425.03;5131746;27;20496;-64
2022/05/13 00:15:46;;;;;;;15.98;9.48;;;;;;;21.04;72.84;100436.75;5130532;27;20067;-65
2022/05/13 00:18:13;;;;;;;17.25;9.48;;;;;;;20.98;72.99;100429.34;5132057;27;20054;-64
2022/05/13 00:20:39;;;;;;;16.70;10.48;;;;;;;20.96;73.27;100436.91;5131758;27;20023;-64
2022/05/13 00:23:04;;;;;;;15.73;10.05;;;;;;;20.87;74.07;100417.09;5133501;27;20034;-65
2022/05/13 00:25:33;;;;;;;14.55;9.48;;;;;;;20.85;74.08;100426.50;5132026;27;20080;-63
2022/05/13 00:28:00;;;;;;;12.43;9.43;;;;;;;20.85;74.56;100426.50;5130948;27;20046;-64
2022/05/13 00:30:28;;;;;;;13.30;9.88;;;;;;;20.90;74.40;100424.03;5131301;27;20030;-64
2022/05/13 00:32:54;;;;;;;16.50;10.05;;;;;;;20.89;74.55;100425.09;5131038;27;20035;-64
2022/05/13 00:35:22;;;;;;;17.67;10.30;;;;;;;20.86;74.46;100417.31;5131569;27;20027;-64
2022/05/13 00:37:48;;;;;;;19.65;9.68;;;;;;;20.84;74.73;100420.22;5131263;27;20070;-64
2022/05/13 00:40:15;;;;;;;13.05;9.60;;;;;;;20.83;75.01;100412.25;5131229;27;20118;-64
2022/05/13 00:42:40;;;;;;;13.82;9.55;;;;;;;20.80;75.31;100416.19;5129718;27;20042;-64
2022/05/13 00:45:06;;;;;;;13.52;9.60;;;;;;;20.78;75.40;100407.38;5131340;27;20027;-65
2022/05/13 00:47:32;;;;;;;13.30;9.95;;;;;;;20.76;75.42;100405.91;5129805;27;20534;-65
2022/05/13 00:49:59;;;;;;;13.23;9.20;;;;;;;20.74;75.15;100403.38;5130744;27;20011;-64
2022/05/13 00:52:26;;;;;;;10.95;8.63;;;;;;;20.71;75.36;100397.47;5131050;27;20023;-65
2022/05/13 00:54:53;;;;;;;13.07;8.95;;;;;;;20.68;75.36;100397.84;5131043;27;20023;-64
2022/05/13 00:57:21;;;;;;;14.93;10.00;;;;;;;20.67;75.82;100401.63;5131099;27;20507;-64
2022/05/13 00:59:49;;;;;;;13.65;9.70;;;;;;;20.58;76.10;100394.63;5130821;27;20038;-64
2022/05/13 01:02:15;;;;;;;14.50;8.75;;;;;;;20.58;76.54;100394.63;5131077;27;20031;-64
2022/05/13 01:04:41;;;;;;;17.58;9.63;;;;;;;20.57;76.68;100396.50;5131620;27;20103;-64
2022/05/13 01:07:14;;;;;;;14.45;10.48;;;;;;;20.55;76.96;100395.88;5132093;27;20023;-64
2022/05/13 01:09:48;;;;;;;14.45;10.00;;;;;;;20.48;77.07;100397.69;5130127;27;20387;-65
2022/05/13 01:12:18;;;;;;;14.98;8.73;;;;;;;20.45;77.26;100391.78;5131756;27;20118;-64
2022/05/13 01:14:56;;;;;;;15.48;9.95;;;;;;;20.39;77.43;100385.25;5131486;27;20109;-64
2022/05/13 01:20:16;;;;;;;15.20;9.35;;;;;;;20.40;78.29;100391.53;5131303;27;20502;-64
2022/05/13 01:22:45;;;;;;;12.57;9.27;;;;;;;20.33;78.68;100388.75;5130764;27;20023;-65
2022/05/13 01:25:13;;;;;;;16.73;9.80;;;;;;;20.27;78.74;100388.66;5130583;27;20019;-64
2022/05/13 01:27:44;;;;;;;15.52;9.50;;;;;;;20.30;78.88;100396.47;5128781;27;20035;-64
2022/05/13 01:30:13;;;;;;;14.57;10.32;;;;;;;20.24;79.46;100389.91;5129051;27;20030;-64
2022/05/13 01:32:38;;;;;;;14.60;9.52;;;;;;;20.24;79.76;100387.19;5130243;27;20035;-64
2022/05/13 01:35:05;;;;;;;16.48;9.65;;;;;;;20.25;80.03;100388.91;5130441;27;20041;-65
2022/05/13 01:37:31;;;;;;;14.68;9.57;;;;;;;20.23;80.56;100384.66;5130433;27;20029;-65
2022/05/13 01:39:56;;;;;;;16.48;9.73;;;;;;;20.13;80.67;100361.31;5130017;27;20027;-65
2022/05/13 01:42:22;;;;;;;19.23;10.15;;;;;;;20.21;81.15;100381.31;5130178;27;20035;-65
2022/05/13 01:44:47;;;;;;;15.10;10.27;;;;;;;20.15;81.13;100370.13;5129871;27;20018;-64
2022/05/13 01:47:13;;;;;;;17.45;10.27;;;;;;;20.17;81.03;100369.94;5128873;27;20050;-65
2022/05/13 01:49:38;;;;;;;15.35;10.00;;;;;;;20.21;80.97;100375.88;5130012;27;20387;-65
2022/05/13 01:52:04;;;;;;;12.60;9.30;;;;;;;20.23;81.34;100379.22;5129687;27;20019;-64
2022/05/13 01:54:30;;;;;;;14.27;9.75;;;;;;;20.21;81.73;100365.78;5130788;27;20121;-64
2022/05/13 01:56:55;;;;;;;18.40;9.43;;;;;;;20.16;82.14;100366.38;5130781;27;20027;-64
2022/05/13 01:59:20;;;;;;;16.63;9.95;;;;;;;20.15;82.41;100364.69;5130430;27;20027;-64
2022/05/13 02:01:46;;;;;;;11.25;9.10;;;;;;;20.21;81.93;100370.41;5129646;27;20039;-64
2022/05/13 02:04:11;;;;;;;11.65;9.50;;;;;;;20.14;81.84;100363.00;5130815;27;20027;-64
2022/05/13 02:06:37;;;;;;;11.10;9.52;;;;;;;20.17;82.46;100372.66;5129328;27;20023;-64
2022/05/13 02:09:03;;;;;;;14.05;9.65;;;;;;;20.15;82.58;100370.13;5130848;27;20020;-64
2022/05/13 02:11:31;;;;;;;17.55;9.57;;;;;;;20.10;83.04;100363.56;5130709;27;20465;-64
2022/05/13 02:13:57;;;;;;;13.25;9.57;;;;;;;20.14;82.96;100382.09;5130336;27;20031;-64
2022/05/13 02:16:23;;;;;;;12.07;9.23;;;;;;;20.12;82.97;100386.03;5129337;27;20038;-64
2022/05/13 02:18:48;;;;;;;15.35;9.32;;;;;;;20.08;83.07;100388.28;5130484;27;20031;-64
2022/05/13 02:21:14;;;;;;;13.65;9.00;;;;;;;20.05;83.46;100391.38;5130738;27;20038;-71
2022/05/13 02:23:40;;;;;;;14.73;9.63;;;;;;;20.06;83.21;100392.22;5130302;27;20027;-71
2022/05/13 02:26:10;;;;;;;12.60;8.60;;;;;;;20.07;82.62;100399.34;5130530;27;20034;-71
2022/05/13 02:28:36;;;;;;;15.93;9.43;;;;;;;20.04;81.75;100399.75;5130406;27;20027;-71
2022/05/13 02:31:01;;;;;;;13.50;11.35;;;;;;;20.05;81.12;100404.13;5130414;27;20031;-71
2022/05/13 02:33:28;;;;;;;17.13;11.43;;;;;;;20.03;81.12;100398.88;5130369;28;20031;-71
2022/05/13 02:35:54;;;;;;;16.13;11.77;;;;;;;20.01;81.95;100391.94;5129995;27;20353;-71
2022/05/13 02:38:19;;;;;;;15.57;11.57;;;;;;;20.02;82.04;100401.81;5130110;27;20034;-71
2022/05/13 02:43:29;;;;;;;15.05;11.40;;;;;;;20.00;82.63;100409.34;5130463;28;20030;-71
2022/05/13 02:45:55;;;;;;;18.63;11.95;;;;;;;19.98;82.19;100414.97;5129791;27;20031;-71
2022/05/13 02:48:21;;;;;;;20.40;11.30;;;;;;;19.92;82.26;100398.56;5130014;27;20043;-71
2022/05/13 02:50:47;;;;;;;16.33;10.75;;;;;;;19.99;82.22;100416.66;5129929;27;20497;-71
2022/05/13 02:53:13;;;;;;;16.70;10.85;;;;;;;19.91;82.44;100400.44;5128392;28;20126;-71
2022/05/13 02:55:39;;;;;;;15.88;11.27;;;;;;;19.95;82.45;100407.19;5131510;27;20055;-71
2022/05/13 02:58:04;;;;;;;17.00;11.30;;;;;;;19.91;82.78;100397.72;5133058;27;20107;-71
2022/05/13 03:00:30;;;;;;;14.57;12.55;;;;;;;19.95;83.20;100412.63;5133001;27;20070;-71
2022/05/13 03:02:56;;;;;;;13.50;10.70;;;;;;;19.93;82.74;100401.09;5131523;27;20544;-71
2022/05/13 03:05:22;;;;;;;17.67;12.00;;;;;;;19.96;83.12;100410.75;5131479;27;20027;-71
2022/05/13 03:07:48;;;;;;;22.17;12.55;;;;;;;19.94;83.43;100412.81;5133235;27;20475;-71
2022/05/13 03:10:13;;;;;;;20.73;11.63;;;;;;;19.94;83.14;100410.09;5133061;27;20029;-71
2022/05/13 03:12:39;;;;;;;20.45;12.10;;;;;;;19.92;83.11;100406.72;5133110;27;20029;-71
2022/05/13 03:15:06;;;;;;;22.55;12.35;;;;;;;19.83;83.34;100397.00;5133081;27;20103;-71
2022/05/13 03:17:31;;;;;;;14.82;11.77;;;;;;;19.87;83.23;100403.75;5135976;27;20001;-70
2022/05/13 03:19:57;;;;;;;16.55;11.05;;;;;;;19.86;82.27;100400.16;5133060;27;20027;-71
2022/05/13 03:22:23;;;;;;;14.90;11.57;;;;;;;19.81;82.90;100396.34;5133091;27;20027;-70
2022/05/13 03:24:49;;;;;;;21.65;12.65;;;;;;;19.86;82.68;100407.47;5132726;27;20062;-70
2022/05/13 03:27:15;;;;;;;16.42;11.70;;;;;;;19.75;82.82;100400.69;5132700;27;20026;-71
2022/05/13 03:29:40;;;;;;;17.52;11.90;;;;;;;19.75;83.50;100406.13;5135361;27;20031;-71
2022/05/13 03:32:07;;;;;;;17.35;12.82;;;;;;;19.73;84.01;100416.34;5133098;27;20031;-71
2022/05/13 03:34:33;;;;;;;18.65;12.05;;;;;;;19.72;84.41;100417.41;5133190;27;20109;-70
2022/05/13 03:36:58;;;;;;;16.05;12.05;;;;;;;19.69;84.54;100417.78;5132360;27;20157;-71
2022/05/13 03:39:24;;;;;;;19.50;13.25;;;;;;;19.62;84.58;100411.41;5133027;27;20027;-71
2022/05/13 03:41:50;;;;;;;17.83;12.13;;;;;;;19.64;85.29;100420.19;5133126;27;20027;-71
2022/05/13 03:44:17;;;;;;;19.70;12.05;;;;;;;19.63;86.06;100434.00;5132252;27;21522;-71
2022/05/13 03:46:43;;;;;;;14.15;11.85;;;;;;;19.61;86.10;100436.91;5131842;27;20027;-70
2022/05/13 03:49:09;;;;;;;17.98;12.23;;;;;;;19.62;86.32;100440.47;5132585;27;20019;-70
2022/05/13 03:51:35;;;;;;;17.15;12.48;;;;;;;19.59;86.09;100439.00;5132484;27;20509;-71
2022/05/13 03:54:00;;;;;;;18.13;12.68;;;;;;;19.52;86.42;100437.22;5131867;27;20245;-70
2022/05/13 03:56:26;;;;;;;18.95;12.55;;;;;;;19.54;86.95;100446.88;5130972;27;20113;-71
2022/05/13 03:58:52;;;;;;;22.48;12.88;;;;;;;19.49;86.72;100443.88;5131990;27;20023;-71
2022/05/13 04:01:17;;;;;;;25.70;13.50;;;;;;;19.55;86.76;100453.16;5132314;27;20429;-70
2022/05/13 04:03:43;;;;;;;19.83;12.43;;;;;;;19.55;86.89;100448.59;5132338;27;20480;-70
2022/05/13 04:08:56;;;;;;;20.45;12.95;;;;;;;19.56;86.48;100460.28;5131957;27;20038;-70
2022/05/13 04:11:30;;;;;;;17.10;13.88;;;;;;;19.56;86.35;100463.88;5130015;27;20481;-71
2022/05/13 04:16:40;;;;;;;20.35;13.40;;;;;;;19.58;86.20;100469.94;5131862;27;20087;-70
2022/05/13 04:19:05;;;;;;;20.83;13.85;;;;;;;19.64;86.36;100482.78;5131693;27;20027;-71
2022/05/13 04:21:34;;;;;;;19.15;14.43;;;;;;;19.66;86.21;100480.75;5130459;27;20031;-71
2022/05/13 04:24:04;;;;;;;20.63;13.50;;;;;;;19.69;85.72;100483.09;5134811;27;20027;-71
2022/05/13 04:26:30;;;;;;;18.08;13.18;;;;;;;19.72;85.63;100482.72;5132435;27;20035;-71
2022/05/13 04:28:56;;;;;;;23.90;14.48;;;;;;;19.68;84.96;100475.13;5131113;27;20026;-71
2022/05/13 04:31:31;;;;;;;15.73;12.75;;;;;;;19.81;84.15;100481.59;5131123;27;20103;-70
2022/05/13 04:33:57;;;;;;;17.98;12.85;;;;;;;19.82;83.44;100488.72;5132169;27;20031;-71
2022/05/13 04:36:23;;;;;;;15.98;12.13;;;;;;;19.84;83.02;100491.25;5132369;27;20069;-71
2022/05/13 04:38:49;;;;;;;16.10;12.68;;;;;;;19.84;83.14;100492.09;5131923;27;20534;-70
2022/05/13 04:43:59;;;;;;;19.00;13.05;;;;;;;19.81;83.09;100480.72;5131206;27;20066;-72
2022/05/13 04:46:25;;;;;;;19.08;13.57;;;;;;;19.83;83.18;100482.22;5131146;27;20484;-72
2022/05/13 04:48:52;;;;;;;20.10;13.88;;;;;;;19.89;83.44;100484.19;5129584;27;20039;-71
2022/05/13 04:51:18;;;;;;;23.88;13.50;;;;;;;19.97;83.49;100497.72;5130843;27;20104;-71
2022/05/13 04:53:45;;;;;;;14.57;11.77;;;;;;;20.06;82.40;100504.72;5130734;27;20380;-71
2022/05/13 04:56:11;;;;;;;18.10;13.82;;;;;;;20.03;82.59;100494.19;5130833;27;20499;-71
2022/05/13 04:58:38;;;;;;;23.90;12.52;;;;;;;20.15;81.90;100500.03;5130872;27;20074;-61
2022/05/13 05:01:05;;;;;;;18.52;14.15;;;;;;;20.19;82.34;100506.78;5130593;27;20047;-61
2022/05/13 05:03:32;;;;;;;24.23;15.40;;;;;;;20.24;82.52;100504.31;5129448;27;20491;-61
2022/05/13 05:05:58;;;;;;;27.67;14.00;;;;;;;20.45;82.48;100520.72;5131067;27;20683;-61
2022/05/13 05:08:25;;;;;;;21.25;13.15;;;;;;;20.67;81.93;100522.38;5131146;27;20410;-62
2022/05/13 05:10:51;;;;;;;24.40;14.68;;;;;;;20.86;80.87;100513.56;5130709;27;20071;-61
2022/05/13 05:13:28;;;;;;;18.65;12.15;;;;;;;21.18;80.38;100528.56;5130225;27;20027;-62
2022/05/13 05:15:55;;;;;;;20.58;13.38;;;;;;;21.42;78.75;100528.13;5130546;27;20499;-62
2022/05/13 05:18:21;;;;;;;19.45;11.52;;;;;;;21.67;77.16;100537.53;5128487;27;20031;-62
2022/05/13 05:20:47;;;;;;;15.85;11.90;;;;;;;21.84;75.02;100515.19;5130237;27;20035;-61
2022/05/13 05:23:18;;;;;;;14.77;11.48;;;;;;;21.97;73.42;100512.53;5130119;27;20030;-62
2022/05/13 05:25:45;;;;;;;13.57;9.38;;;;;;;22.26;72.87;100528.63;5129877;27;20478;-62
2022/05/13 05:28:11;;;;;;;16.50;9.25;;;;;;;22.46;71.84;100525.06;5130208;27;20023;-62
2022/05/13 05:30:37;;;;;;;10.68;8.45;;;;;;;22.65;70.35;100527.06;5130162;27;20030;-61
2022/05/13 05:33:03;;;;;;;16.33;8.27;;;;;;;22.81;68.49;100526.66;5129856;27;20059;-61
2022/05/13 05:35:29;;;;;;;9.57;8.57;;;;;;;22.97;66.27;100527.13;5130024;27;20050;-62
2022/05/13 05:37:55;;;;;;;10.15;6.90;;;;;;;23.19;65.63;100536.81;5130092;27;20038;-62
2022/05/13 05:40:20;;;;;;;9.82;7.18;;;;;;;23.36;65.20;100535.34;5130297;27;20042;-66
2022/05/13 05:42:47;;;;;;;17.58;7.43;;;;;;;23.53;63.66;100531.13;5130257;27;20491;-66
2022/05/13 05:45:15;;;;;;;12.45;6.00;;;;;;;23.71;62.61;100531.31;5128957;27;20735;-65
2022/05/13 05:47:40;;;;;;;13.25;6.03;;;;;;;23.90;61.89;100535.03;5130360;27;20030;-65
2022/05/13 05:50:08;;;;;;;11.05;5.15;;;;;;;24.01;60.17;100527.03;5130305;27;20027;-62
2022/05/13 05:52:34;;;;;;;15.73;6.07;;;;;;;24.26;59.49;100536.22;5130460;27;20035;-62
2022/05/13 05:58:03;;;;;;;9.57;4.50;;;;;;;24.69;56.94;100532.84;5131161;27;20034;-65
2022/05/13 06:00:30;;;;;;;6.50;4.60;;;;;;;24.79;56.12;100530.44;5129866;27;20070;-65
2022/05/13 06:02:57;;;;;;;5.07;3.10;;;;;;;24.99;54.88;100539.38;5129824;27;20027;-65
2022/05/13 06:05:23;;;;;;;4.35;3.60;;;;;;;25.12;54.05;100550.25;5130592;27;20505;-65
2022/05/13 06:07:50;;;;;;;4.55;3.63;;;;;;;25.25;53.31;100547.41;5130719;27;20161;-66
2022/05/13 06:10:17;;;;;;;4.68;3.40;;;;;;;25.33;52.21;100544.41;5131002;27;20019;-65
2022/05/13 06:12:42;;;;;;;7.55;3.70;;;;;;;25.50;51.68;100542.78;5130958;27;20031;-65
2022/05/13 06:15:09;;;;;;;4.97;3.47;;;;;;;25.59;51.74;100552.41;5129554;27;20084;-65
2022/05/13 06:17:34;;;;;;;4.80;3.20;;;;;;;25.71;51.36;100551.44;5130713;27;20026;-65
2022/05/13 06:20:04;;;;;;;5.07;3.28;;;;;;;25.82;50.59;100549.84;5130269;27;20035;-65
2022/05/13 06:22:30;;;;;;;7.75;2.90;;;;;;;25.94;49.80;100545.28;5131202;27;20023;-65
2022/05/13 06:24:55;;;;;;;5.90;2.70;;;;;;;26.06;49.09;100540.72;5129520;27;20062;-65
2022/05/13 06:27:21;;;;;;;9.98;3.60;;;;;;;26.25;48.75;100554.22;5130694;27;20031;-65
2022/05/13 06:29:47;;;;;;;7.30;2.33;;;;;;;26.42;48.83;100546.19;5131404;27;20123;-65
2022/05/13 06:32:12;;;;;;;4.63;2.75;;;;;;;26.50;47.93;100546.72;5134606;27;20177;-65
2022/05/13 06:34:38;;;;;;;4.85;2.67;;;;;;;26.62;47.00;100538.53;5134909;27;20019;-65
2022/05/13 06:37:04;;;;;;;3.35;2.20;;;;;;;26.69;46.57;100536.53;5134876;27;20053;-66
2022/05/13 06:39:29;;;;;;;5.35;2.55;;;;;;;26.88;46.50;100551.91;5132902;27;20061;-66
2022/05/13 06:41:54;;;;;;;5.28;2.92;;;;;;;27.00;46.34;100554.69;5133832;27;20576;-66
2022/05/13 06:44:20;;;;;;;4.35;2.78;;;;;;;27.09;45.26;100551.38;5133819;27;20027;-66
2022/05/13 06:46:47;;;;;;;8.20;3.20;;;;;;;27.19;45.66;100543.38;5134677;27;20031;-66
2022/05/13 06:49:14;;;;;;;8.55;3.17;;;;;;;27.32;46.08;100554.22;5134609;27;20030;-66
2022/05/13 06:51:40;;;;;;;4.75;2.20;;;;;;;27.51;44.53;100560.44;5134599;27;20031;-65
2022/05/13 06:54:09;;;;;;;8.30;3.08;;;;;;;27.56;44.57;100558.66;5133034;27;20039;-66
2022/05/13 06:56:37;;;;;;;2.75;2.55;;;;;;;27.66;43.52;100560.81;5133302;27;20054;-66
2022/05/13 06:59:04;;;;;;;3.63;3.17;;;;;;;27.67;43.95;100549.56;5134501;27;20093;-66
2022/05/13 07:01:30;;;;;;;7.20;3.03;;;;;;;27.70;44.15;100562.84;5133320;27;20039;-65
2022/05/13 07:03:55;;;;;;;6.88;3.20;;;;;;;27.70;43.92;100557.31;5134118;27;20084;-66
2022/05/13 07:06:21;;;;;;;7.07;3.17;;;;;;;27.71;44.12;100556.28;5134497;27;20062;-65
2022/05/13 07:08:49;;;;;;;8.98;3.53;;;;;;;27.86;43.96;100553.88;5134080;27;20056;-66
2022/05/13 07:11:15;;;;;;;5.15;2.90;;;;;;;27.94;44.04;100552.66;5134107;27;20023;-65
2022/05/13 07:13:40;;;;;;;5.22;2.78;;;;;;;28.03;43.99;100557.59;5134358;27;20057;-66
2022/05/13 07:16:06;;;;;;;5.45;3.05;;;;;;;28.08;43.56;100554.09;5134204;27;20055;-66
2022/05/13 07:18:31;;;;;;;4.15;3.03;;;;;;;28.21;43.74;100564.88;5132619;27;20027;-65
2022/05/13 07:20:57;;;;;;;5.30;3.00;;;;;;;28.25;43.67;100546.75;5134075;27;20034;-66
2022/05/13 07:23:22;;;;;;;5.53;3.00;;;;;;;28.43;43.86;100561.19;5134115;27;20076;-66
2022/05/13 07:25:48;;;;;;;12.55;3.30;;;;;;;28.38;44.02;100543.72;5133917;27;20031;-66
2022/05/13 07:28:13;;;;;;;9.05;3.60;;;;;;;28.53;43.04;100569.72;5133745;27;20019;-66
2022/05/13 07:30:39;;;;;;;5.93;3.15;;;;;;;28.52;43.11;100556.16;5133779;27;20035;-66
2022/05/13 07:33:04;;;;;;;5.38;2.85;;;;;;;28.56;42.59;100565.63;5133811;27;20027;-73
2022/05/13 07:35:30;;;;;;;4.00;2.55;;;;;;;28.59;41.41;100564.31;5133697;27;20584;-73
2022/05/13 07:37:56;;;;;;;7.63;2.60;;;;;;;28.62;41.89;100559.13;5133370;27;20031;-73
2022/05/13 07:43:05;;;;;;;4.03;2.30;;;;;;;28.65;41.08;100546.75;5133227;27;20076;-73
2022/05/13 07:45:32;;;;;;;4.50;2.40;;;;;;;28.75;40.94;100558.00;5133441;27;20031;-73
2022/05/13 07:48:01;;;;;;;7.07;2.65;;;;;;;28.72;42.03;100550.22;5132737;27;20042;-74
2022/05/13 07:50:27;;;;;;;12.95;3.28;;;;;;;28.77;41.63;100556.66;5132627;27;20017;-73
2022/05/13 07:52:53;;;;;;;5.43;2.80;;;;;;;28.92;41.41;100567.97;5132799;27;20054;-73
2022/05/13 07:55:19;;;;;;;3.92;2.78;;;;;;;28.91;40.96;100554.41;5133508;27;20414;-73
2022/05/13 07:57:44;;;;;;;8.15;3.42;;;;;;;28.96;40.81;100558.13;5133069;27;20518;-73
2022/05/13 08:00:25;;;;;;;2.67;2.40;;;;;;;29.03;40.91;100549.69;5133042;27;20451;-73
2022/05/13 08:03:12;;;;;;;4.82;3.03;;;;;;;29.11;40.84;100552.91;5132926;27;20040;-73
2022/05/13 08:05:47;;;;;;;3.83;2.85;;;;;;;29.12;40.72;100554.59;5131259;27;20027;-73
2022/05/13 08:08:23;;;;;;;3.28;2.85;;;;;;;29.16;41.23;100553.00;5131668;27;20035;-74
2022/05/13 08:10:52;;;;;;;3.65;2.58;;;;;;;29.13;41.39;100547.13;5131670;27;20479;-74
2022/05/13 08:13:18;;;;;;;2.72;2.45;;;;;;;29.22;41.47;100543.72;5132795;27;20019;-74
2022/05/13 08:15:45;;;;;;;2.90;2.70;;;;;;;29.27;41.43;100549.31;5132833;27;20118;-73
2022/05/13 08:18:11;;;;;;;6.38;3.25;;;;;;;29.28;41.21;100551.00;5132918;27;20446;-73
2022/05/13 08:20:37;;;;;;;16.73;3.25;;;;;;;29.33;41.37;100548.31;5132764;27;20115;-74
2022/05/13 08:23:03;;;;;;;4.32;2.88;;;;;;;29.34;40.62;100547.22;5132680;27;20479;-73
2022/05/13 08:25:28;;;;;;;7.65;3.03;;;;;;;29.40;40.74;100548.16;5132636;27;20031;-73
2022/05/13 08:27:54;;;;;;;3.83;2.33;;;;;;;29.43;40.62;100537.41;5132795;27;20102;-73
2022/05/13 08:30:20;;;;;;;9.73;3.38;;;;;;;29.44;40.55;100546.56;5132919;27;20645;-74
2022/05/13 08:32:46;;;;;;;5.28;3.05;;;;;;;29.43;41.16;100545.72;5131287;27;20469;-74
2022/05/13 08:35:13;;;;;;;3.20;2.80;;;;;;;29.53;41.09;100550.59;5131117;27;20046;-74
2022/05/13 08:37:44;;;;;;;6.18;3.38;;;;;;;29.48;40.58;100547.72;5132358;27;20603;-73
2022/05/13 08:40:22;;;;;;;3.67;2.28;;;;;;;29.44;40.32;100546.56;5132336;27;20146;-73
2022/05/13 08:42:49;;;;;;;3.28;3.03;;;;;;;29.42;41.08;100546.81;5132457;27;20114;-73
2022/05/13 08:45:15;;;;;;;8.75;3.03;;;;;;;29.58;41.39;100556.19;5131173;27;20038;-74
2022/05/13 08:47:52;;;;;;;4.90;3.13;;;;;;;29.62;41.26;100558.22;5132314;27;20072;-74
2022/05/13 08:50:24;;;;;;;3.10;2.60;;;;;;;29.68;40.89;100548.06;5132317;27;20031;-74
2022/05/13 08:53:09;;;;;;;4.40;2.72;;;;;;;29.53;40.45;100534.81;5130935;27;20039;-73
2022/05/13 08:56:00;;;;;;;4.97;2.83;;;;;;;29.63;40.63;100556.31;5132567;27;20027;-74
2022/05/13 08:58:31;;;;;;;5.88;2.83;;;;;;;29.59;40.38;100547.63;5118007;27;20403;-74
2022/05/13 09:01:01;;;;;;;4.00;2.67;;;;;;;29.52;40.96;100546.13;5130518;27;20107;-74
2022/05/13 09:03:39;;;;;;;4.95;2.78;;;;;;;29.53;40.87;100542.28;5132525;27;20446;-74
2022/05/13 09:06:19;;;;;;;4.32;2.90;;;;;;;29.53;40.86;100542.28;5131436;27;20378;-62
2022/05/13 09:08:45;;;;;;;4.18;2.40;;;;;;;29.50;40.74;100529.78;5131387;27;20035;-62
2022/05/13 09:11:27;;;;;;;3.13;2.80;;;;;;;29.43;40.80;100525.53;5131009;27;20114;-63
2022/05/13 09:14:08;;;;;;;7.45;3.22;;;;;;;29.44;41.82;100527.22;5131068;27;20680;-63
2022/05/13 09:17:04;;;;;;;5.88;3.03;;;;;;;29.46;41.76;100525.00;5130073;27;20034;-63
2022/05/13 09:19:38;;;;;;;3.92;2.65;;;;;;;29.53;41.68;100522.94;5130928;27;20035;-63
2022/05/13 09:22:11;;;;;;;4.43;2.80;;;;;;;29.57;41.52;100516.66;5131085;27;20030;-63
2022/05/13 09:24:37;;;;;;;3.67;2.95;;;;;;;29.50;40.31;100512.38;5129640;27;20029;-63
2022/05/13 09:27:03;;;;;;;3.33;2.60;;;;;;;29.48;40.40;100522.84;5131256;27;20382;-75
2022/05/13 09:29:40;;;;;;;5.55;2.47;;;;;;;29.54;40.78;100517.16;5131964;27;20050;-76
2022/05/13 09:32:12;;;;;;;3.30;3.00;;;;;;;29.53;40.99;100509.13;5132208;27;20458;-75
2022/05/13 09:34:49;;;;;;;3.95;2.53;;;;;;;29.54;40.65;100508.84;5132209;27;20038;-75
2022/05/13 09:37:24;;;;;;;3.63;2.30;;;;;;;29.55;40.29;100513.28;5130314;27;20057;-75
2022/05/13 09:40:11;;;;;;;3.42;2.65;;;;;;;29.49;40.41;100508.75;5127834;27;20373;-75
2022/05/13 09:42:40;;;;;;;5.90;2.85;;;;;;;29.62;40.89;100518.66;5131658;27;20047;-75
2022/05/13 09:45:26;;;;;;;2.95;1.90;;;;;;;29.60;39.04;100502.28;5132169;27;20475;-75
2022/05/13 09:48:16;;;;;;;6.10;2.28;;;;;;;29.72;38.03;100516.03;5130761;27;20019;-76
2022/05/13 09:50:50;;;;;;;3.33;2.00;;;;;;;29.65;37.78;100507.09;5131922;27;20609;-75
2022/05/13 09:53:20;;;;;;;4.90;2.33;;;;;;;29.64;38.18;100497.97;5130758;27;20055;-75
2022/05/13 09:55:46;;;;;;;2.17;2.03;;;;;;;29.52;37.77;100482.53;5131873;27;20483;-75
2022/05/13 09:58:27;;;;;;;2.42;2.03;;;;;;;29.61;37.76;100500.41;5131943;27;20395;-75
2022/05/13 10:00:58;;;;;;;3.17;1.98;;;;;;;29.58;37.12;100489.81;5126635;27;20037;-76
2022/05/13 10:03:31;;;;;;;8.07;3.08;;;;;;;29.53;37.61;100492.53;5131148;27;20674;-66
2022/05/13 10:06:19;;;;;;;7.03;2.00;;;;;;;29.53;37.98;100498.88;5130446;27;20092;-66
2022/05/13 10:18:47;;;;;;;2.47;2.20;;;;;;;29.31;38.88;100462.03;5130361;27;20046;-68
2022/05/13 10:22:10;;;;;;;2.47;2.20;;;;;;;29.48;39.20;100482.22;4994897;28;20046;-68
2022/05/13 10:24:45;;;;;;;4.03;2.45;;;;;;;29.53;38.96;100476.75;5020682;28;20037;-66
2022/05/13 10:27:31;;;;;;;2.95;2.30;;;;;;;29.54;38.50;100478.44;5065663;28;20032;-68
2022/05/13 10:30:05;;;;;;;2.65;2.03;;;;;;;29.48;38.53;100475.84;5109278;27;20027;-66
2022/05/13 10:32:39;;;;;;;2.72;2.22;;;;;;;29.44;38.71;100474.69;5130523;27;20039;-66
2022/05/13 10:35:09;;;;;;;7.40;2.03;;;;;;;29.31;39.22;100459.28;5130348;27;20027;-66
2022/05/13 10:38:00;;;;;;;3.35;2.10;;;;;;;29.19;39.39;100453.03;5130590;27;20135;-66
2022/05/13 10:40:33;;;;;;;3.35;2.22;;;;;;;29.22;39.89;100459.97;5131224;27;20053;-76
2022/05/13 10:43:10;;;;;;;2.80;2.17;;;;;;;29.28;39.73;100475.53;5129066;28;20035;-76
2022/05/13 10:45:39;;;;;;;4.18;2.17;;;;;;;29.18;39.18;100475.38;5131744;27;20031;-76
2022/05/13 10:48:17;;;;;;;4.18;2.60;;;;;;;29.05;39.64;100462.72;5131806;27;20019;-76
2022/05/13 10:54:57;;;;;;;;;;;;;;;;;;;;;
2022/05/13 10:57:49;;;;;;;5.00;2.15;;;;;;;29.05;39.83;100454.44;5045540;28;20041;-69
2022/05/13 11:00:19;;;;;;;2.60;2.40;;;;;;;29.06;39.64;100450.59;5047245;28;20102;-67
2022/05/13 11:03:17;;;;;;;2.35;2.00;;;;;;;29.09;39.83;100452.03;5049383;28;20040;-65
2022/05/13 11:05:42;;;;;;;2.90;2.30;;;;;;;29.11;38.98;100449.84;5119665;27;20031;-65
2022/05/13 11:08:35;;;;;;;2.35;2.03;;;;;;;29.14;38.72;100452.94;5130069;27;20403;-65
2022/05/13 11:11:27;;;;;;;3.67;1.80;;;;;;;29.19;38.78;100447.50;5130020;27;20471;-65
2022/05/13 11:14:15;;;;;;;2.92;2.20;;;;;;;29.18;38.18;100431.16;5128702;27;20030;-65
2022/05/13 11:17:09;;;;;;;2.55;1.80;;;;;;;29.30;37.98;100434.69;5132212;27;20019;-65
2022/05/13 11:19:38;;;;;;;;;;;;;;;29.24;37.75;100433.75;5134449;27;20078;-66
2022/05/13 11:22:18;;;;;;;3.25;2.20;;;;;;;29.23;38.08;100432.06;5133533;27;20379;-65
2022/05/13 11:28:41;;;;;;;3.17;2.28;;;;;;;29.37;37.93;100432.56;5104655;27;20065;-66
2022/05/13 11:31:16;;;;;;;4.85;2.30;;;;;;;29.34;37.86;100424.78;5133458;27;20634;-66
2022/05/13 11:34:02;;;;;;;5.50;2.28;;;;;;;29.31;38.83;100428.06;5133375;27;20122;-66
2022/05/13 11:36:49;;;;;;;4.18;2.45;;;;;;;29.34;38.56;100428.38;5132254;27;20029;-66
2022/05/13 11:39:42;;;;;;;1.85;1.75;;;;;;;29.31;38.58;100423.34;5133645;27;20039;-66
2022/05/13 11:42:20;;;;;;;4.00;2.03;;;;;;;29.30;38.39;100423.63;5133318;27;20391;-65
2022/05/13 11:45:14;;;;;;;4.43;2.42;;;;;;;29.27;38.54;100418.59;5132888;27;20023;-66
2022/05/13 11:47:58;;;;;;;8.45;2.58;;;;;;;29.38;38.26;100421.25;5133409;27;20460;-65
2022/05/13 11:50:30;;;;;;;8.25;3.08;;;;;;;29.41;38.17;100409.69;5131692;27;20114;-66
2022/05/13 11:52:57;;;;;;;7.65;2.65;;;;;;;29.45;38.40;100412.78;5132544;27;20039;-66
2022/05/13 11:55:29;;;;;;;7.10;2.28;;;;;;;29.45;38.20;100412.78;5133080;27;20027;-66
2022/05/13 11:57:55;;;;;;;6.47;2.17;;;;;;;29.43;37.79;100410.25;5132927;27;20039;-66
2022/05/13 12:00:37;;;;;;;4.32;2.15;;;;;;;29.43;37.73;100420.50;5131586;27;20080;-67
2022/05/13 12:03:09;;;;;;;4.03;2.00;;;;;;;29.40;38.00;100415.47;5131497;27;20042;-65
2022/05/13 12:05:46;;;;;;;5.82;2.33;;;;;;;29.37;38.34;100410.47;5133038;27;20421;-66
2022/05/13 12:08:23;;;;;;;3.50;2.45;;;;;;;29.36;38.60;100403.22;5132523;27;20035;-66